LiveATC.Net - Listen to live air traffic control over the Internet!


ICAO: KPWT  IATA: PWT   Airport: Bremerton National Airport
City: Bremerton   State/Province: Washington
Country: United States   Continent: North America
KPWT METAR Weather: KPWT 180356Z AUTO 02005KT 10SM CLR 09/06 A3011 RMK AO2 SLP218 T00940061
KPWT Flight Activity (FlightAware)
KPWT Airport Info   (AirNav) (iFlightPlanner)
KPWT VFR Sectional Chart   (iFlightPlanner) 
KPWT IFR Low Chart   (iFlightPlanner) 
KPWT CTAF
Feed Status: UP   Listeners: 0
Listen right in your browser - requires Flash (in browser, requires Flash)
Click here to listen with your own player (launches your MP3 player)
KPWT CTAF Audio Archives
FacilityFrequency
Bremerton CTAF123.050


NOTICE

Unauthorized use prohibited. See LiveATC.net Terms of Service


Find LiveATC Audio Streams


Airport/ARTCC Code

Frequency Search
(e.g., 124.400, 128.75)
Site-wide search
 


Browse LiveATC Feeds
LiveATC Coverage Map
Top 50 LiveATC Feeds
Bad Weather Areas

LiveATC FAQ
Offer a LiveATC Feed
Contact LiveATC.net
Press Inquiries

LiveATC on iPhone
LiveATC on Android

Windows Phone
Windows 8/10

LiveATC Mobile
(Mobile browser)

ATC Audio Archives
Interesting Recordings

LiveATC Forums


Home Page
About LiveATC.net
Make a Donation
LiveATC Store

Terms of Use
Privacy Policy

Canadian Air Freqs

AIRMETs/SIGMETs

FAA Airport Status
Nat'l Airspace Status
Arrival Demand Charts


Server Software By:
Icecast.org
Liquidsoap